createdAt,value
2023-04-23T00:00:54.936Z,19.15
2023-04-23T00:03:27.115Z,17.48
2023-04-23T00:05:58.300Z,18.45
2023-04-23T00:08:27.716Z,18.60
2023-04-23T00:10:56.111Z,19.33
2023-04-23T00:13:24.305Z,19.33
2023-04-23T00:15:52.349Z,18.23
2023-04-23T00:18:20.655Z,18.10
2023-04-23T00:20:50.052Z,18.67
2023-04-23T00:23:17.810Z,19.05
2023-04-23T00:25:45.696Z,18.38
2023-04-23T00:28:13.534Z,17.52
2023-04-23T00:30:42.466Z,20.98
2023-04-23T00:33:10.490Z,19.58
2023-04-23T00:35:39.145Z,18.10
2023-04-23T00:38:08.339Z,20.65
2023-04-23T00:40:37.095Z,20.23
2023-04-23T00:43:05.686Z,19.65
2023-04-23T00:45:33.533Z,20.98
2023-04-23T00:48:01.597Z,19.65
2023-04-23T00:50:29.418Z,21.27
2023-04-23T00:52:57.271Z,22.95
2023-04-23T00:55:26.810Z,20.77
2023-04-23T00:57:55.190Z,23.02
2023-04-23T01:00:23.401Z,24.13
2023-04-23T01:02:53.186Z,24.25
2023-04-23T01:05:24.408Z,20.52
2023-04-23T01:07:52.642Z,20.48
2023-04-23T01:10:21.387Z,19.65
2023-04-23T01:12:51.564Z,22.38
2023-04-23T01:15:19.420Z,22.52
2023-04-23T01:17:47.524Z,24.80
2023-04-23T01:20:16.926Z,23.13
2023-04-23T01:22:46.130Z,21.20
2023-04-23T01:25:14.143Z,22.90
2023-04-23T01:27:42.351Z,21.98
2023-04-23T01:30:11.014Z,22.33
2023-04-23T01:32:40.362Z,21.92
2023-04-23T01:35:13.050Z,21.98
2023-04-23T01:37:41.009Z,22.52
2023-04-23T01:40:11.184Z,22.58
2023-04-23T01:42:39.698Z,21.92
2023-04-23T01:45:09.043Z,23.40
2023-04-23T01:47:37.557Z,25.23
2023-04-23T01:50:06.284Z,25.05
2023-04-23T01:52:34.083Z,23.50
2023-04-23T01:55:02.306Z,24.13
2023-04-23T01:57:31.609Z,29.40
2023-04-23T02:00:08.120Z,25.92
2023-04-23T02:02:41.289Z,26.23
2023-04-23T02:05:12.520Z,26.73
2023-04-23T02:07:40.942Z,24.95
2023-04-23T02:10:10.142Z,26.70
2023-04-23T02:12:39.770Z,25.13
2023-04-23T02:15:09.382Z,27.67
2023-04-23T02:17:37.550Z,26.45
2023-04-23T02:20:06.469Z,28.40
2023-04-23T02:22:34.652Z,28.75
2023-04-23T02:25:02.516Z,28.90
2023-04-23T02:27:30.342Z,27.27
2023-04-23T02:29:59.970Z,27.02
2023-04-23T02:32:28.075Z,28.70
2023-04-23T02:34:56.228Z,26.95
2023-04-23T02:37:24.172Z,28.00
2023-04-23T02:39:52.213Z,28.88
2023-04-23T02:42:20.052Z,32.83
2023-04-23T02:44:48.473Z,31.52
2023-04-23T02:47:17.717Z,30.90
2023-04-23T02:49:45.557Z,31.60
2023-04-23T02:52:13.457Z,31.75
2023-04-23T02:54:41.700Z,32.83
2023-04-23T02:57:09.793Z,36.58
2023-04-23T02:59:38.318Z,31.90
2023-04-23T03:02:06.345Z,34.05
2023-04-23T03:04:35.816Z,33.75
2023-04-23T03:07:03.649Z,32.03
2023-04-23T03:09:33.643Z,33.60
2023-04-23T03:12:02.318Z,33.97
2023-04-23T03:14:30.305Z,34.42
2023-04-23T03:16:58.227Z,35.97
2023-04-23T03:19:26.437Z,34.15
2023-04-23T03:21:55.624Z,37.53
2023-04-23T03:24:23.692Z,39.42
2023-04-23T03:26:51.600Z,37.45
2023-04-23T03:29:19.421Z,33.60
2023-04-23T03:31:47.346Z,34.20
2023-04-23T03:34:15.929Z,35.47
2023-04-23T03:36:46.408Z,41.50
2023-04-23T03:39:16.043Z,36.53
2023-04-23T03:41:50.610Z,38.80
2023-04-23T03:44:21.634Z,36.90
2023-04-23T03:46:52.212Z,38.25
2023-04-23T03:49:21.136Z,37.83
2023-04-23T03:51:48.932Z,38.50
2023-04-23T03:54:18.616Z,39.22
2023-04-23T03:57:02.509Z,40.20
2023-04-23T03:59:34.975Z,37.63
2023-04-23T04:02:04.387Z,36.25
2023-04-23T04:04:32.697Z,40.38
2023-04-23T04:07:01.110Z,36.08
2023-04-23T04:09:30.697Z,33.97
2023-04-23T04:12:02.713Z,35.92
2023-04-23T04:14:31.060Z,35.35
2023-04-23T04:16:59.038Z,33.90
2023-04-23T04:19:26.941Z,36.08
2023-04-23T04:21:54.752Z,34.92
2023-04-23T04:24:26.257Z,35.72
2023-04-23T04:26:55.960Z,42.47
2023-04-23T04:29:23.861Z,33.95
2023-04-23T04:31:52.055Z,32.10
2023-04-23T04:34:20.235Z,33.13
2023-04-23T04:36:48.099Z,33.40
2023-04-23T04:39:15.991Z,32.13
2023-04-23T04:41:43.791Z,31.65
2023-04-23T04:44:14.414Z,31.30
2023-04-23T04:46:42.920Z,33.03
2023-04-23T04:49:11.661Z,31.92
2023-04-23T04:51:40.883Z,32.67
2023-04-23T04:54:09.583Z,31.85
2023-04-23T04:56:37.462Z,29.63
2023-04-23T04:59:05.348Z,31.10
2023-04-23T05:01:34.981Z,27.13
2023-04-23T05:04:03.242Z,28.17
2023-04-23T05:06:31.258Z,27.67
2023-04-23T05:08:59.152Z,28.48
2023-04-23T05:11:27.079Z,27.73
2023-04-23T05:13:54.920Z,26.10
2023-04-23T05:16:22.783Z,26.63
2023-04-23T05:18:52.106Z,24.73
2023-04-23T05:21:20.532Z,20.83
2023-04-23T05:23:49.415Z,21.73
2023-04-23T05:26:18.170Z,21.88
2023-04-23T05:28:46.166Z,21.02
2023-04-23T05:31:14.176Z,18.08
2023-04-23T05:33:50.075Z,19.00
2023-04-23T05:36:20.272Z,19.98
2023-04-23T05:38:48.193Z,17.52
2023-04-23T05:41:16.570Z,16.25
2023-04-23T05:43:44.371Z,18.33
2023-04-23T05:46:12.215Z,23.20
2023-04-23T05:48:39.998Z,21.52
2023-04-23T05:51:07.898Z,15.93
2023-04-23T05:53:37.055Z,15.32
2023-04-23T05:56:05.356Z,14.75
2023-04-23T05:58:33.332Z,15.95
2023-04-23T06:01:01.215Z,14.27
2023-04-23T06:03:30.363Z,16.92
2023-04-23T06:05:58.501Z,14.32
2023-04-23T06:08:26.352Z,15.35
2023-04-23T06:10:56.195Z,12.60
2023-04-23T06:13:24.109Z,13.45
2023-04-23T06:15:52.457Z,14.00
2023-04-23T06:18:20.342Z,11.93
2023-04-23T06:20:48.821Z,13.90
2023-04-23T06:23:16.725Z,10.93
2023-04-23T06:25:44.627Z,10.00
2023-04-23T06:28:13.902Z,10.30
2023-04-23T06:31:00.399Z,10.20
2023-04-23T06:33:29.211Z,10.75
2023-04-23T06:35:57.256Z,9.00
2023-04-23T06:38:25.221Z,10.15
2023-04-23T06:40:53.196Z,10.75
2023-04-23T06:43:22.681Z,11.90
2023-04-23T06:46:09.553Z,8.95
2023-04-23T06:48:37.650Z,16.38
2023-04-23T06:51:06.031Z,13.20
2023-04-23T06:53:34.063Z,11.70
2023-04-23T06:56:01.945Z,12.70
2023-04-23T06:58:32.301Z,10.05
2023-04-23T07:01:04.187Z,13.13
2023-04-23T07:03:34.441Z,8.50
2023-04-23T07:06:02.257Z,8.32
2023-04-23T07:08:30.105Z,10.70
2023-04-23T07:10:58.045Z,8.68
2023-04-23T07:13:25.900Z,6.78
2023-04-23T07:15:55.100Z,7.88
2023-04-23T07:18:22.954Z,8.48
2023-04-23T07:20:51.044Z,5.65
2023-04-23T07:23:18.922Z,7.40
2023-04-23T07:25:46.792Z,6.40
2023-04-23T07:28:14.675Z,5.30
2023-04-23T07:30:42.524Z,4.88
2023-04-23T07:33:11.749Z,7.20
2023-04-23T07:35:39.635Z,4.97
2023-04-23T07:38:07.680Z,5.30
2023-04-23T07:40:36.935Z,6.15
2023-04-23T07:43:04.906Z,3.25
2023-04-23T07:45:33.111Z,4.47
2023-04-23T07:48:02.257Z,4.22
2023-04-23T07:50:32.054Z,9.32
2023-04-23T07:52:59.871Z,42.63
2023-04-23T07:55:27.760Z,7.63
2023-04-23T07:57:55.595Z,4.82
2023-04-23T08:00:23.551Z,13.52
2023-04-23T08:02:51.813Z,9.07
2023-04-23T08:05:19.786Z,7.55
2023-04-23T08:07:49.043Z,6.18
2023-04-23T08:10:16.866Z,4.05
2023-04-23T08:12:45.200Z,5.10
2023-04-23T08:15:13.415Z,6.53
2023-04-23T08:17:44.781Z,3.25
2023-04-23T08:20:12.781Z,9.90
2023-04-23T08:22:40.762Z,8.55
2023-04-23T08:25:11.112Z,6.30
2023-04-23T08:27:38.980Z,4.60
2023-04-23T08:30:08.660Z,2.88
2023-04-23T08:32:36.532Z,4.28
2023-04-23T08:35:04.877Z,3.75
2023-04-23T08:37:32.811Z,4.68
2023-04-23T08:40:02.161Z,3.00
2023-04-23T08:42:42.810Z,3.67
2023-04-23T08:45:11.709Z,3.28
2023-04-23T08:47:43.133Z,6.05
2023-04-23T08:50:12.726Z,23.45
2023-04-23T08:52:43.285Z,3.55
2023-04-23T08:55:11.724Z,4.78
2023-04-23T08:57:42.802Z,3.40
2023-04-23T09:00:12.270Z,4.03
2023-04-23T09:02:42.485Z,3.33
2023-04-23T09:05:11.286Z,2.55
2023-04-23T09:07:39.301Z,11.35
2023-04-23T09:10:09.302Z,5.47
2023-04-23T09:12:39.022Z,1.83
2023-04-23T09:15:11.040Z,2.97
2023-04-23T09:17:41.033Z,4.57
2023-04-23T09:20:10.403Z,2.78
2023-04-23T09:22:46.011Z,2.75
2023-04-23T09:25:16.276Z,2.60
2023-04-23T09:27:45.065Z,1.90
2023-04-23T09:30:15.727Z,2.30
2023-04-23T09:32:46.004Z,5.55
2023-04-23T09:35:16.643Z,4.78
2023-04-23T09:37:48.370Z,2.95
2023-04-23T09:40:17.940Z,4.28
2023-04-23T09:42:49.727Z,3.28
2023-04-23T09:45:19.398Z,2.47
2023-04-23T09:47:51.728Z,2.35
2023-04-23T09:50:19.886Z,4.10
2023-04-23T09:52:56.127Z,4.38
2023-04-23T09:55:30.672Z,4.35
2023-04-23T09:57:59.362Z,3.45
2023-04-23T10:00:34.414Z,2.70
2023-04-23T10:03:02.857Z,4.38
2023-04-23T10:05:37.225Z,3.35
2023-04-23T10:08:19.579Z,3.40
2023-04-23T10:13:21.377Z,4.53
2023-04-23T10:15:51.146Z,2.55
2023-04-23T10:18:21.101Z,5.63
2023-04-23T10:20:50.923Z,4.43
2023-04-23T10:23:23.172Z,2.67
2023-04-23T10:25:52.013Z,2.30
2023-04-23T10:28:29.095Z,3.53
2023-04-23T10:30:58.435Z,4.20
2023-04-23T10:33:31.999Z,2.97
2023-04-23T10:36:06.201Z,2.15
2023-04-23T10:38:34.955Z,5.03
2023-04-23T10:41:04.248Z,2.30
2023-04-23T10:43:32.278Z,2.95
2023-04-23T10:46:02.230Z,3.15
2023-04-23T10:48:30.408Z,1.98
2023-04-23T10:51:14.562Z,2.95
2023-04-23T10:53:47.910Z,3.20
2023-04-23T10:56:16.765Z,2.58
2023-04-23T10:58:50.558Z,2.85
2023-04-23T11:01:22.387Z,3.42
2023-04-23T11:03:53.167Z,4.30
2023-04-23T11:06:43.386Z,4.97
2023-04-23T11:09:31.513Z,3.58
2023-04-23T11:12:01.594Z,2.38
2023-04-23T11:14:37.224Z,4.35
2023-04-23T11:17:07.461Z,3.70
2023-04-23T11:19:39.352Z,1.58
2023-04-23T11:22:08.765Z,1.95
2023-04-23T11:24:42.094Z,2.13
2023-04-23T11:27:11.712Z,3.30
2023-04-23T11:29:41.243Z,3.90
2023-04-23T11:32:13.047Z,2.83
2023-04-23T11:34:43.541Z,4.45
2023-04-23T11:37:12.465Z,3.47
2023-04-23T11:39:42.063Z,3.03
2023-04-23T11:42:11.325Z,2.80
2023-04-23T11:44:40.315Z,3.03
2023-04-23T11:47:11.294Z,3.78
2023-04-23T11:49:39.601Z,1.42
2023-04-23T11:52:08.130Z,3.60
2023-04-23T11:54:36.485Z,14.10
2023-04-23T11:57:05.928Z,35.42
2023-04-23T11:59:33.877Z,26.33
2023-04-23T12:02:01.948Z,11.30
2023-04-23T12:04:33.096Z,9.18
2023-04-23T12:07:03.102Z,3.00
2023-04-23T12:09:36.656Z,4.53
2023-04-23T12:12:04.671Z,2.40
2023-04-23T12:14:33.443Z,2.95
2023-04-23T12:17:11.926Z,26.92
2023-04-23T12:19:44.829Z,3.85
2023-04-23T12:22:12.994Z,2.53
2023-04-23T12:24:48.718Z,2.28
2023-04-23T12:27:20.086Z,3.05
2023-04-23T12:29:48.413Z,3.05
2023-04-23T12:32:16.640Z,1.60
2023-04-23T12:34:54.251Z,2.05
2023-04-23T12:37:25.362Z,10.65
2023-04-23T12:39:55.434Z,1.92
2023-04-23T12:42:23.671Z,2.78
2023-04-23T12:44:52.327Z,3.85
2023-04-23T12:47:20.432Z,5.00
2023-04-23T12:49:53.333Z,7.95
2023-04-23T12:52:23.104Z,4.13
2023-04-23T12:54:52.701Z,2.60
2023-04-23T12:57:23.133Z,3.72
2023-04-23T12:59:51.544Z,2.50
2023-04-23T13:02:19.617Z,3.00
2023-04-23T13:04:47.722Z,2.65
2023-04-23T13:07:15.664Z,4.28
2023-04-23T13:09:45.171Z,13.27
2023-04-23T13:12:13.292Z,4.10
2023-04-23T13:14:41.456Z,5.55
2023-04-23T13:17:09.441Z,4.30
2023-04-23T13:19:39.730Z,5.03
2023-04-23T13:22:07.992Z,3.47
2023-04-23T13:24:36.075Z,7.85
2023-04-23T13:27:05.801Z,4.70
2023-04-23T13:29:34.109Z,2.85
2023-04-23T13:32:02.164Z,4.00
2023-04-23T13:34:30.838Z,4.43
2023-04-23T13:37:00.305Z,26.90
2023-04-23T13:39:28.109Z,5.43
2023-04-23T13:42:08.803Z,3.83
2023-04-23T13:44:39.058Z,2.22
2023-04-23T13:47:06.988Z,3.30
2023-04-23T13:49:34.905Z,2.58
2023-04-23T13:52:06.817Z,4.03
2023-04-23T13:54:35.511Z,2.13
2023-04-23T13:57:03.704Z,3.25
2023-04-23T13:59:31.582Z,2.95
2023-04-23T14:02:00.859Z,3.65
2023-04-23T14:04:28.872Z,5.65
2023-04-23T14:06:56.780Z,4.65
2023-04-23T14:09:25.161Z,4.50
2023-04-23T14:11:53.302Z,4.57
2023-04-23T14:14:21.185Z,6.13
2023-04-23T14:16:49.054Z,7.57
2023-04-23T14:19:19.416Z,6.53
2023-04-23T14:21:47.341Z,11.30
2023-04-23T14:24:23.172Z,4.13
2023-04-23T14:26:51.494Z,4.60
2023-04-23T14:29:24.231Z,4.28
2023-04-23T14:31:52.273Z,4.78
2023-04-23T14:34:21.541Z,4.28
2023-04-23T14:36:49.959Z,4.63
2023-04-23T14:39:17.905Z,7.30
2023-04-23T14:41:45.844Z,6.93
2023-04-23T14:44:13.732Z,4.75
2023-04-23T14:46:41.613Z,5.38
2023-04-23T14:49:09.727Z,4.38
2023-04-23T14:51:39.235Z,5.32
2023-04-23T14:54:07.229Z,7.60
2023-04-23T14:56:35.068Z,5.18
2023-04-23T14:59:03.078Z,4.82
2023-04-23T15:01:31.465Z,4.50
2023-04-23T15:03:59.701Z,6.15
2023-04-23T15:06:27.992Z,3.78
2023-04-23T15:08:57.356Z,4.20
2023-04-23T15:11:25.604Z,4.32
2023-04-23T15:13:58.373Z,3.97
2023-04-23T15:16:47.582Z,4.15
2023-04-23T15:19:18.054Z,2.45
2023-04-23T15:21:46.699Z,3.67
2023-04-23T15:24:16.601Z,6.43
2023-04-23T15:26:45.852Z,3.55
2023-04-23T15:29:14.203Z,4.95
2023-04-23T15:31:42.810Z,3.72
2023-04-23T15:34:12.151Z,5.45
2023-04-23T15:36:40.407Z,4.13
2023-04-23T15:39:09.758Z,3.45
2023-04-23T15:41:41.017Z,4.75
2023-04-23T15:44:12.117Z,3.33
2023-04-23T15:46:40.381Z,5.75
2023-04-23T15:49:08.322Z,4.28
2023-04-23T15:51:36.530Z,3.95
2023-04-23T15:54:07.976Z,3.30
2023-04-23T15:56:36.570Z,4.32
2023-04-23T15:59:06.327Z,4.35
2023-04-23T16:01:34.602Z,4.53
2023-04-23T16:06:33.616Z,4.63
2023-04-23T16:09:02.272Z,6.57
2023-04-23T16:11:30.769Z,3.45
2023-04-23T16:13:58.738Z,2.42
2023-04-23T16:16:28.549Z,2.40
2023-04-23T16:18:57.701Z,2.83
2023-04-23T16:21:27.933Z,1.73
2023-04-23T16:23:56.251Z,1.30
2023-04-23T16:26:24.286Z,1.73
2023-04-23T16:29:05.545Z,2.28
2023-04-23T16:31:41.164Z,2.38
2023-04-23T16:34:09.217Z,1.10
2023-04-23T16:36:38.067Z,1.55
2023-04-23T16:39:11.508Z,1.52
2023-04-23T16:41:39.685Z,2.05
2023-04-23T16:44:07.825Z,1.67
2023-04-23T16:46:35.896Z,4.68
2023-04-23T16:49:05.812Z,1.58
2023-04-23T16:51:33.697Z,1.63
2023-04-23T16:54:02.319Z,2.13
2023-04-23T16:56:30.184Z,2.03
2023-04-23T16:58:58.363Z,2.80
2023-04-23T17:01:26.761Z,3.42
2023-04-23T17:03:54.839Z,2.67
2023-04-23T17:06:29.475Z,3.08
2023-04-23T17:08:58.777Z,2.25
2023-04-23T17:11:27.078Z,2.20
2023-04-23T17:13:55.829Z,1.33
2023-04-23T17:16:25.377Z,2.17
2023-04-23T17:18:53.616Z,2.78
2023-04-23T17:21:22.172Z,9.38
2023-04-23T17:23:51.966Z,5.35
2023-04-23T17:26:20.812Z,1.75
2023-04-23T17:28:48.749Z,1.58
2023-04-23T17:31:18.548Z,4.55
2023-04-23T17:33:49.136Z,1.60
2023-04-23T17:36:17.873Z,2.95
2023-04-23T17:38:45.915Z,1.83
2023-04-23T17:41:16.736Z,2.55
2023-04-23T17:43:44.661Z,4.60
2023-04-23T17:46:12.874Z,2.72
2023-04-23T17:48:40.998Z,2.05
2023-04-23T17:51:08.939Z,1.88
2023-04-23T17:53:37.700Z,2.38
2023-04-23T17:56:05.558Z,2.08
2023-04-23T17:58:36.150Z,1.30
2023-04-23T18:01:06.037Z,5.65
2023-04-23T18:03:34.105Z,1.50
2023-04-23T18:06:02.232Z,1.67
2023-04-23T18:08:30.734Z,3.17
2023-04-23T18:10:58.801Z,4.10
2023-04-23T18:13:26.744Z,2.17
2023-04-23T18:15:56.172Z,1.63
2023-04-23T18:18:24.420Z,2.00
2023-04-23T18:20:52.606Z,4.43
2023-04-23T18:23:21.970Z,3.45
2023-04-23T18:25:50.000Z,3.47
2023-04-23T18:28:17.988Z,1.23
2023-04-23T18:30:45.830Z,1.40
2023-04-23T18:33:31.639Z,1.63
2023-04-23T18:36:04.044Z,3.08
2023-04-23T18:38:37.446Z,2.33
2023-04-23T18:41:05.484Z,3.58
2023-04-23T18:43:34.349Z,2.33
2023-04-23T18:46:02.823Z,4.82
2023-04-23T18:48:47.445Z,1.20
2023-04-23T18:51:21.258Z,1.55
2023-04-23T18:53:49.911Z,1.67
2023-04-23T18:56:18.001Z,2.30
2023-04-23T18:58:46.137Z,2.08
2023-04-23T19:01:14.628Z,0.93
2023-04-23T19:03:44.154Z,3.20
2023-04-23T19:06:12.125Z,1.52
2023-04-23T19:08:41.911Z,1.33
2023-04-23T19:11:10.604Z,1.90
2023-04-23T19:13:38.560Z,2.70
2023-04-23T19:16:06.699Z,2.00
2023-04-23T19:18:34.724Z,2.03
2023-04-23T19:21:04.910Z,2.00
2023-04-23T19:23:32.933Z,1.13
2023-04-23T19:26:01.724Z,1.35
2023-04-23T19:28:29.640Z,3.63
2023-04-23T19:30:58.353Z,3.47
2023-04-23T19:33:26.330Z,1.73
2023-04-23T19:35:54.199Z,2.38
2023-04-23T19:38:23.538Z,1.30
2023-04-23T19:40:51.708Z,3.20
2023-04-23T19:43:19.964Z,2.35
2023-04-23T19:45:48.025Z,1.55
2023-04-23T19:48:16.035Z,3.90
2023-04-23T19:50:44.493Z,1.52
2023-04-23T19:53:12.456Z,2.85
2023-04-23T19:55:42.200Z,2.05
2023-04-23T19:58:10.272Z,2.10
2023-04-23T20:00:41.370Z,4.25
2023-04-23T20:03:10.169Z,5.30
2023-04-23T20:05:38.487Z,3.22
2023-04-23T20:08:14.487Z,2.13
2023-04-23T20:10:44.303Z,1.50
2023-04-23T20:13:12.239Z,1.95
2023-04-23T20:15:40.352Z,2.22
2023-04-23T20:18:08.590Z,1.55
2023-04-23T20:20:37.496Z,3.50
2023-04-23T20:23:05.488Z,1.27
2023-04-23T20:25:36.564Z,0.65
2023-04-23T20:28:06.486Z,1.20
2023-04-23T20:30:34.722Z,0.60
2023-04-23T20:33:03.298Z,1.50
2023-04-23T20:35:31.773Z,1.80
2023-04-23T20:38:00.834Z,0.43
2023-04-23T20:40:29.102Z,0.80
2023-04-23T20:42:58.575Z,0.32
2023-04-23T20:45:28.029Z,1.33
2023-04-23T20:47:57.591Z,2.30
2023-04-23T20:50:25.854Z,1.52
2023-04-23T20:52:54.033Z,1.05
2023-04-23T20:55:22.159Z,0.90
2023-04-23T20:57:50.055Z,1.27
2023-04-23T21:00:20.260Z,0.63
2023-04-23T21:02:49.622Z,1.55
2023-04-23T21:05:17.623Z,0.32
2023-04-23T21:07:45.632Z,1.35
2023-04-23T21:10:13.502Z,0.55
2023-04-23T21:12:43.331Z,0.57
2023-04-23T21:15:13.234Z,1.15
2023-04-23T21:17:41.702Z,0.40
2023-04-23T21:20:11.565Z,0.40
2023-04-23T21:22:39.561Z,0.50
2023-04-23T21:25:08.104Z,1.17
2023-04-23T21:27:36.090Z,0.73
2023-04-23T21:30:09.628Z,0.55
2023-04-23T21:32:37.580Z,0.50
2023-04-23T21:35:06.045Z,0.50
2023-04-23T21:37:37.298Z,1.20
2023-04-23T21:40:06.360Z,0.52
2023-04-23T21:42:34.274Z,2.00
2023-04-23T21:45:02.225Z,0.65
2023-04-23T21:47:30.218Z,0.55
2023-04-23T21:49:58.584Z,0.68
2023-04-23T21:52:26.470Z,0.57
2023-04-23T21:54:55.734Z,0.47
2023-04-23T21:57:23.788Z,0.55
2023-04-23T21:59:51.811Z,2.17
2023-04-23T22:02:19.778Z,0.68
2023-04-23T22:04:47.867Z,1.02
2023-04-23T22:07:15.654Z,0.52
2023-04-23T22:09:43.796Z,0.70
2023-04-23T22:12:13.309Z,0.55
2023-04-23T22:14:41.632Z,0.50
2023-04-23T22:17:09.625Z,1.08
2023-04-23T22:19:37.952Z,0.85
2023-04-23T22:22:06.435Z,0.47
2023-04-23T22:24:34.387Z,0.85
2023-04-23T22:27:02.331Z,1.02
2023-04-23T22:29:31.598Z,0.68
2023-04-23T22:31:59.518Z,2.13
2023-04-23T22:34:27.530Z,0.35
2023-04-23T22:36:55.465Z,0.50
2023-04-23T22:39:23.473Z,0.90
2023-04-23T22:41:51.273Z,2.00
2023-04-23T22:44:19.119Z,0.50
2023-04-23T22:46:48.482Z,0.50
2023-04-23T22:49:18.220Z,0.80
2023-04-23T22:51:46.170Z,0.40
2023-04-23T22:54:14.044Z,2.40
2023-04-23T22:56:42.024Z,1.05
2023-04-23T22:59:11.880Z,1.65
2023-04-23T23:01:40.073Z,0.50
2023-04-23T23:04:09.294Z,0.85
2023-04-23T23:06:37.176Z,0.63
2023-04-23T23:09:05.151Z,0.88
2023-04-23T23:11:33.058Z,0.70
2023-04-23T23:14:00.947Z,0.50
2023-04-23T23:16:30.428Z,1.30
2023-04-23T23:18:58.353Z,0.90
2023-04-23T23:21:27.709Z,0.95
2023-04-23T23:23:55.581Z,0.60
2023-04-23T23:26:23.396Z,1.92
2023-04-23T23:28:52.465Z,1.05
2023-04-23T23:31:21.834Z,1.00
2023-04-23T23:33:49.724Z,1.27
2023-04-23T23:36:17.723Z,1.08
2023-04-23T23:38:47.030Z,1.00
2023-04-23T23:41:14.864Z,1.23
2023-04-23T23:43:42.717Z,3.15
2023-04-23T23:46:10.585Z,1.67
2023-04-23T23:48:38.838Z,0.95
2023-04-23T23:51:06.902Z,1.05
2023-04-23T23:53:34.764Z,2.13
2023-04-23T23:56:04.131Z,0.90
2023-04-23T23:58:32.065Z,1.17
